Lords Valley, Pennsylvania
Current Conditions -  °F | °C
As of 2:53 PM on Thursday 29 Jan 2015 (Local Time) from KMPO Reporting Station
Overcast Overcast  
Wind Chill: 12°   Ceiling: 8000
Heat Index: 23°   Visibility: 10mi
Dew Point:   Wind: 10mph
Humidity: 37%   Direction: 130°SE
Pressure: 30"   Gusts: NA
Location:  41.4849°N, 75.2172°W
Report Text: KMPO 291953Z AUTO 13009KT 10SM BKN080 OVC100 M05/M18 A3000 RMK AO2 SLP195 T10501178
Loading
Personal Weather Stations






























Interactive Weather Map New forecast layout! Learn more

10-Day Weather Forecast

Advertisements
Track Severe Weather on mobile